QFA4332 YMML-YSSY
Flight info
| Callsign | QFA4332 |
|---|---|
| Flight time | N/A |
| Altitude | 37000 |
| Route | DOSEL2/34 DOSEL Y59 RIVET |
| Aircraft | B738/M-SDE2E3FGHIRWXY/LB1 |
Departure
| Time | N/A |
|---|---|
| Airport | Melbourne Airport (YMML) |
Arrival
| Time | 2026-05-04 05:56 |
|---|---|
| Airport | Sydney Kingsford Smith International Airport (YSSY) |
| Time | Latitude | Longitude | Altitude | Speed | Heading |
|---|---|---|---|---|---|
| 2026-05-04 05:16 | -36.25828 | 146.94417 | 36950 ft | 509 kts | 45° |
| 2026-05-04 05:16 | -36.21548 | 147.01544 | 36991 ft | 511 kts | 46° |
| 2026-05-04 05:17 | -36.17258 | 147.08679 | 37017 ft | 510 kts | 46° |
| 2026-05-04 05:17 | -36.12899 | 147.15915 | 37021 ft | 512 kts | 46° |
| 2026-05-04 05:18 | -36.08599 | 147.23044 | 37020 ft | 512 kts | 46° |
| 2026-05-04 05:18 | -36.04816 | 147.29303 | 36878 ft | 514 kts | 46° |
| 2026-05-04 05:19 | -36.02678 | 147.32832 | 36624 ft | 514 kts | 46° |
| 2026-05-04 05:19 | -36.00529 | 147.36380 | 36370 ft | 511 kts | 46° |
| 2026-05-04 05:19 | -35.98404 | 147.39887 | 36118 ft | 509 kts | 46° |
| 2026-05-04 05:19 | -35.96288 | 147.43372 | 36010 ft | 506 kts | 46° |
| 2026-05-04 05:20 | -35.92034 | 147.50359 | 36021 ft | 511 kts | 46° |
| 2026-05-04 05:20 | -35.87735 | 147.57407 | 36018 ft | 514 kts | 46° |
| 2026-05-04 05:21 | -35.83390 | 147.64520 | 36019 ft | 511 kts | 46° |
| 2026-05-04 05:21 | -35.79142 | 147.71475 | 36020 ft | 510 kts | 46° |
| 2026-05-04 05:22 | -35.74858 | 147.78465 | 36020 ft | 511 kts | 46° |
| 2026-05-04 05:22 | -35.70537 | 147.85500 | 36020 ft | 511 kts | 46° |
| 2026-05-04 05:23 | -35.66206 | 147.92535 | 36020 ft | 511 kts | 46° |
| 2026-05-04 05:23 | -35.61814 | 147.99652 | 36020 ft | 512 kts | 46° |
| 2026-05-04 05:24 | -35.57471 | 148.06674 | 36020 ft | 512 kts | 46° |
| 2026-05-04 05:24 | -35.53073 | 148.13773 | 36020 ft | 512 kts | 46° |
| 2026-05-04 05:25 | -35.48725 | 148.20775 | 36020 ft | 512 kts | 46° |
| 2026-05-04 05:25 | -35.44381 | 148.27757 | 36020 ft | 512 kts | 46° |
| 2026-05-04 05:26 | -35.40048 | 148.34708 | 36019 ft | 511 kts | 46° |
| 2026-05-04 05:26 | -35.35724 | 148.41628 | 36020 ft | 512 kts | 46° |
| 2026-05-04 05:28 | -35.18347 | 148.69313 | 36019 ft | 511 kts | 45° |
| 2026-05-04 05:29 | -35.14016 | 148.76189 | 36020 ft | 511 kts | 45° |
| 2026-05-04 05:29 | -35.09688 | 148.83037 | 36019 ft | 512 kts | 45° |
| 2026-05-04 05:31 | -34.94111 | 149.07547 | 35723 ft | 520 kts | 47° |
| 2026-05-04 05:31 | -34.91850 | 149.11101 | 35455 ft | 516 kts | 47° |
| 2026-05-04 05:32 | -34.89636 | 149.14577 | 35202 ft | 513 kts | 47° |
| 2026-05-04 05:32 | -34.87479 | 149.17956 | 34958 ft | 515 kts | 47° |
| 2026-05-04 05:32 | -34.85276 | 149.21402 | 34711 ft | 517 kts | 47° |
| 2026-05-04 05:33 | -34.80773 | 149.28436 | 34206 ft | 519 kts | 47° |
| 2026-05-04 05:33 | -34.78536 | 149.31928 | 33954 ft | 519 kts | 47° |
| 2026-05-04 05:33 | -34.76321 | 149.35478 | 33700 ft | 521 kts | 50° |
| 2026-05-04 05:33 | -34.74343 | 149.39175 | 33450 ft | 524 kts | 55° |
| 2026-05-04 05:34 | -34.72477 | 149.43080 | 33197 ft | 526 kts | 57° |
| 2026-05-04 05:34 | -34.70681 | 149.46983 | 32945 ft | 526 kts | 57° |
| 2026-05-04 05:34 | -34.68889 | 149.50961 | 32689 ft | 527 kts | 58° |
| 2026-05-04 05:34 | -34.67131 | 149.54907 | 32436 ft | 527 kts | 58° |
| 2026-05-04 05:35 | -34.65373 | 149.58874 | 32181 ft | 527 kts | 58° |
| 2026-05-04 05:35 | -34.63664 | 149.62749 | 31798 ft | 517 kts | 59° |
| 2026-05-04 05:35 | -34.61937 | 149.66669 | 31227 ft | 511 kts | 58° |
| 2026-05-04 05:35 | -34.60255 | 149.70493 | 30549 ft | 516 kts | 58° |
| 2026-05-04 05:36 | -34.58556 | 149.74355 | 29797 ft | 509 kts | 59° |
| 2026-05-04 05:36 | -34.56889 | 149.78145 | 29082 ft | 500 kts | 59° |
| 2026-05-04 05:36 | -34.55235 | 149.81902 | 28361 ft | 498 kts | 59° |
| 2026-05-04 05:36 | -34.53605 | 149.85597 | 27644 ft | 495 kts | 59° |
| 2026-05-04 05:37 | -34.51989 | 149.89259 | 26931 ft | 492 kts | 59° |
| 2026-05-04 05:37 | -34.50359 | 149.92949 | 26205 ft | 489 kts | 59° |
| 2026-05-04 05:37 | -34.48761 | 149.96564 | 25500 ft | 486 kts | 59° |
| 2026-05-04 05:38 | -34.45562 | 150.03786 | 24069 ft | 478 kts | 60° |
| 2026-05-04 05:38 | -34.43948 | 150.07426 | 23352 ft | 472 kts | 60° |
| 2026-05-04 05:38 | -34.42394 | 150.10930 | 22649 ft | 461 kts | 60° |
| 2026-05-04 05:38 | -34.40864 | 150.14374 | 21961 ft | 450 kts | 60° |
| 2026-05-04 05:39 | -34.39362 | 150.17752 | 21274 ft | 439 kts | 60° |
| 2026-05-04 05:39 | -34.36481 | 150.24219 | 19944 ft | 421 kts | 60° |
| 2026-05-04 05:39 | -34.35067 | 150.27388 | 19298 ft | 412 kts | 60° |
| 2026-05-04 05:40 | -34.32273 | 150.33641 | 17992 ft | 407 kts | 60° |
| 2026-05-04 05:40 | -34.30928 | 150.36650 | 17362 ft | 399 kts | 61° |
| 2026-05-04 05:40 | -34.29588 | 150.39645 | 16741 ft | 395 kts | 61° |
| 2026-05-04 05:41 | -34.28247 | 150.42639 | 16110 ft | 394 kts | 61° |
| 2026-05-04 05:41 | -34.26907 | 150.45634 | 15469 ft | 385 kts | 61° |
| 2026-05-04 05:41 | -34.25619 | 150.48517 | 14866 ft | 378 kts | 61° |
| 2026-05-04 05:41 | -34.24769 | 150.50418 | 14469 ft | 381 kts | 61° |
| 2026-05-04 05:42 | -34.23067 | 150.54222 | 13655 ft | 372 kts | 61° |
| 2026-05-04 05:42 | -34.21802 | 150.57047 | 13042 ft | 364 kts | 61° |
| 2026-05-04 05:42 | -34.20561 | 150.59813 | 12460 ft | 368 kts | 62° |
| 2026-05-04 05:42 | -34.19338 | 150.62540 | 11831 ft | 360 kts | 62° |
| 2026-05-04 05:43 | -34.18150 | 150.65195 | 11255 ft | 352 kts | 60° |
| 2026-05-04 05:43 | -34.16987 | 150.67795 | 10715 ft | 350 kts | 60° |
| 2026-05-04 05:43 | -34.15841 | 150.70348 | 10355 ft | 335 kts | 60° |
| 2026-05-04 05:45 | -34.08752 | 150.86069 | 8951 ft | 285 kts | 59° |
| 2026-05-04 05:45 | -34.07790 | 150.88197 | 8939 ft | 289 kts | 59° |
| 2026-05-04 05:47 | -34.04488 | 151.03267 | 6866 ft | 281 kts | 131° |
| 2026-05-04 05:47 | -34.05363 | 151.04436 | 6617 ft | 278 kts | 134° |
| 2026-05-04 05:47 | -34.07152 | 151.06657 | 6101 ft | 274 kts | 139° |
| 2026-05-04 05:48 | -34.08741 | 151.07886 | 5742 ft | 273 kts | 163° |
| 2026-05-04 05:48 | -34.09991 | 151.08302 | 5535 ft | 274 kts | 170° |
| 2026-05-04 05:48 | -34.12487 | 151.08922 | 5046 ft | 268 kts | 171° |
| 2026-05-04 05:48 | -34.14331 | 151.09381 | 4718 ft | 268 kts | 170° |
| 2026-05-04 05:49 | -34.16193 | 151.09956 | 4360 ft | 272 kts | 158° |
| 2026-05-04 05:49 | -34.17751 | 151.11249 | 4012 ft | 266 kts | 128° |
| 2026-05-04 05:49 | -34.18588 | 151.13232 | 3707 ft | 264 kts | 101° |
| 2026-05-04 05:49 | -34.18692 | 151.15428 | 3431 ft | 250 kts | 78° |
| 2026-05-04 05:51 | -34.13834 | 151.22635 | 2654 ft | 142 kts | 346° |
| 2026-05-04 05:51 | -34.12856 | 151.22362 | 2558 ft | 143 kts | 347° |
| 2026-05-04 05:52 | -34.11880 | 151.22098 | 2458 ft | 143 kts | 347° |
| 2026-05-04 05:52 | -34.10913 | 151.21841 | 2356 ft | 142 kts | 347° |
| 2026-05-04 05:52 | -34.09920 | 151.21574 | 2268 ft | 143 kts | 347° |
| 2026-05-04 05:52 | -34.08944 | 151.21318 | 2160 ft | 143 kts | 347° |
| 2026-05-04 05:53 | -34.07946 | 151.21057 | 2062 ft | 142 kts | 348° |
| 2026-05-04 05:54 | -34.01097 | 151.19276 | 979 ft | 141 kts | 349° |
| 2026-05-04 05:55 | -34.00125 | 151.19025 | 785 ft | 141 kts | 347° |
| 2026-05-04 05:55 | -33.99148 | 151.18784 | 594 ft | 141 kts | 349° |
| 2026-05-04 05:55 | -33.98186 | 151.18521 | 378 ft | 141 kts | 348° |
| 2026-05-04 05:55 | -33.97220 | 151.18278 | 183 ft | 140 kts | 349° |
| 2026-05-04 05:56 | -33.96261 | 151.18022 | 29 ft | 138 kts | 349° |
| 2026-05-04 05:56 | -33.95470 | 151.17819 | 16 ft | 86 kts | 348° |
| 2026-05-04 05:56 | -33.95070 | 151.17715 | 21 ft | 34 kts | 348° |
| 2026-05-04 05:56 | -33.94845 | 151.17659 | 22 ft | 31 kts | 351° |
| 2026-05-04 05:57 | -33.94637 | 151.17650 | 25 ft | 27 kts | 8° |
| 2026-05-04 05:57 | -33.94492 | 151.17694 | 25 ft | 19 kts | 17° |
| 2026-05-04 05:57 | -33.94398 | 151.17729 | 24 ft | 14 kts | 17° |
| 2026-05-04 05:57 | -33.94294 | 151.17725 | 21 ft | 16 kts | 347° |
| 2026-05-04 05:58 | -33.94176 | 151.17690 | 16 ft | 18 kts | 347° |
| 2026-05-04 05:58 | -33.94045 | 151.17648 | 11 ft | 20 kts | 347° |
| 2026-05-04 05:58 | -33.93906 | 151.17612 | 9 ft | 19 kts | 348° |
| 2026-05-04 05:58 | -33.93773 | 151.17578 | 9 ft | 18 kts | 348° |
| 2026-05-04 05:59 | -33.93641 | 151.17543 | 9 ft | 19 kts | 348° |
| 2026-05-04 05:59 | -33.93501 | 151.17508 | 9 ft | 20 kts | 348° |
| 2026-05-04 05:59 | -33.93368 | 151.17499 | 15 ft | 18 kts | 351° |
| 2026-05-04 05:59 | -33.93244 | 151.17468 | 18 ft | 18 kts | 348° |
| 2026-05-04 06:00 | -33.93120 | 151.17436 | 20 ft | 18 kts | 347° |
| 2026-05-04 06:00 | -33.93002 | 151.17423 | 22 ft | 13 kts | 33° |
| 2026-05-04 06:00 | -33.92994 | 151.17535 | 22 ft | 16 kts | 101° |
| 2026-05-04 06:00 | -33.93023 | 151.17610 | 22 ft | 6 kts | 165° |
| 2026-05-04 06:01 | -33.93083 | 151.17622 | 21 ft | 5 kts | 167° |